Trabzon — 9HA2783 — position and weather

sailwx.info

Track history (hours):
 
Tides and Currents Weather Stations Pressure Air Temp Water Temp Dewpoint Dewpoint Depression Visibility Wind Speed Wind Dir Waves Ship Positions

Trabzon

Last reported at 2018-Apr-08 04:01 UTC. Time now 2018-Apr-20 11:01 UTC.
Position N 00°12' W 050°42'.
Warning: this ship's position is 12 days out of date.

Length 229 m; draft 11.6 m.

Type: Cargo ship. MMSI: 215679000.

Date/timePositionNaut miles runAvg speedWind from/ knotsBaromVisibWave heightAir tempDewpointWater temp
2018-Apr-08 04:01N 00°12' W 050°42'315.1
2018-Apr-08 03:49N 00°11' W 050°45'515.6
2018-Apr-08 03:31N 00°10' W 050°50'714.3
2018-Apr-08 03:00N 00°08' W 050°57'714.7
2018-Apr-08 02:30N 00°01' W 051°00'511.1
2018-Apr-08 02:00S 00°04' W 051°00'814.6
2018-Apr-08 01:29S 00°11' W 051°02'  
2018-Mar-31 00:21S 00°14' W 051°19'410.7
2018-Mar-31 00:00S 00°12' W 051°16'510.4
2018-Mar-30 23:30S 00°08' W 051°13'8 2.8
2018-Mar-30 20:45S 00°04' W 051°06'0 0.1
2018-Mar-30 20:27S 00°04' W 051°06'0 0.3
2018-Mar-30 19:49S 00°04' W 051°06'0 0.2
2018-Mar-30 19:30S 00°04' W 051°07'0 0.1
2018-Mar-30 19:00S 00°04' W 051°07'0 0.1
2018-Mar-30 18:30S 00°04' W 051°07'1 2.7
2018-Mar-30 18:00S 00°04' W 051°05'510.1
2018-Mar-30 17:30S 00°00' W 051°02'713.1
2018-Mar-30 17:00N 00°06' W 050°58'612.6
2018-Mar-30 16:30N 00°10' W 050°54'  
Track history (hours):
 
Tides and Currents Weather Stations Pressure Air Temp Water Temp Dewpoint Dewpoint Depression Visibility Wind Speed Wind Dir Waves Ship Positions

Trabzon

Last reported at 2018-Apr-08 04:01 UTC. Time now 2018-Apr-20 11:01 UTC.
Position N 00°12' W 050°42'.
Warning: this ship's position is 12 days out of date.

Length 229 m; draft 11.6 m.

Type: Cargo ship. MMSI: 215679000.

Date/timePositionNaut miles runAvg speedWind from/ knotsBaromVisibWave heightAir tempDewpointWater temp
2018-Apr-08 04:01N 00°12' W 050°42'315.1
2018-Apr-08 03:49N 00°11' W 050°45'515.6
2018-Apr-08 03:31N 00°10' W 050°50'714.3
2018-Apr-08 03:00N 00°08' W 050°57'714.7
2018-Apr-08 02:30N 00°01' W 051°00'511.1
2018-Apr-08 02:00S 00°04' W 051°00'814.6
2018-Apr-08 01:29S 00°11' W 051°02'  
2018-Mar-31 00:21S 00°14' W 051°19'410.7
2018-Mar-31 00:00S 00°12' W 051°16'510.4
2018-Mar-30 23:30S 00°08' W 051°13'8 2.8
2018-Mar-30 20:45S 00°04' W 051°06'0 0.1
2018-Mar-30 20:27S 00°04' W 051°06'0 0.3
2018-Mar-30 19:49S 00°04' W 051°06'0 0.2
2018-Mar-30 19:30S 00°04' W 051°07'0 0.1
2018-Mar-30 19:00S 00°04' W 051°07'0 0.1
2018-Mar-30 18:30S 00°04' W 051°07'1 2.7
2018-Mar-30 18:00S 00°04' W 051°05'510.1
2018-Mar-30 17:30S 00°00' W 051°02'713.1
2018-Mar-30 17:00N 00°06' W 050°58'612.6
2018-Mar-30 16:30N 00°10' W 050°54'  

Dump ship's entire track history